sensor_id;sensor_type;location;lat;lon;timestamp;pressure;altitude;pressure_sealevel;temperature;humidity
35045;BME280;21231;48.394;34.964;2023-04-01T00:01:04;99380.56;;;5.08;100.00
35045;BME280;21231;48.394;34.964;2023-04-01T00:03:36;99381.63;;;5.12;100.00
35045;BME280;21231;48.394;34.964;2023-04-01T00:06:14;99385.94;;;5.13;100.00
35045;BME280;21231;48.394;34.964;2023-04-01T00:08:45;99384.19;;;5.12;100.00
35045;BME280;21231;48.394;34.964;2023-04-01T00:11:15;99370.63;;;5.13;100.00
35045;BME280;21231;48.394;34.964;2023-04-01T00:13:50;99371.63;;;5.15;100.00
35045;BME280;21231;48.394;34.964;2023-04-01T00:16:28;99376.03;;;5.17;100.00
35045;BME280;21231;48.394;34.964;2023-04-01T00:19:09;99377.81;;;5.18;100.00
35045;BME280;21231;48.394;34.964;2023-04-01T00:21:41;99379.50;;;5.18;100.00
35045;BME280;21231;48.394;34.964;2023-04-01T00:24:12;99375.03;;;5.15;100.00
35045;BME280;21231;48.394;34.964;2023-04-01T00:26:41;99380.16;;;5.15;100.00
35045;BME280;21231;48.394;34.964;2023-04-01T00:29:13;99386.94;;;5.15;100.00
35045;BME280;21231;48.394;34.964;2023-04-01T00:31:45;99384.97;;;5.11;100.00
35045;BME280;21231;48.394;34.964;2023-04-01T00:34:14;99378.69;;;5.05;100.00
35045;BME280;21231;48.394;34.964;2023-04-01T00:36:43;99383.00;;;5.07;100.00
35045;BME280;21231;48.394;34.964;2023-04-01T00:39:12;99377.69;;;5.03;100.00
35045;BME280;21231;48.394;34.964;2023-04-01T00:41:41;99382.59;;;5.00;100.00
35045;BME280;21231;48.394;34.964;2023-04-01T00:44:24;99385.75;;;4.96;100.00
35045;BME280;21231;48.394;34.964;2023-04-01T00:47:10;99383.78;;;4.92;100.00
35045;BME280;21231;48.394;34.964;2023-04-01T00:49:45;99381.72;;;4.86;100.00
35045;BME280;21231;48.394;34.964;2023-04-01T00:52:18;99395.16;;;4.84;100.00
35045;BME280;21231;48.394;34.964;2023-04-01T00:54:49;99392.97;;;4.76;100.00
35045;BME280;21231;48.394;34.964;2023-04-01T00:57:35;99386.47;;;4.68;100.00
35045;BME280;21231;48.394;34.964;2023-04-01T01:00:11;99386.94;;;4.62;100.00
35045;BME280;21231;48.394;34.964;2023-04-01T01:02:44;99383.31;;;4.59;100.00
35045;BME280;21231;48.394;34.964;2023-04-01T01:05:38;99381.22;;;4.53;100.00
35045;BME280;21231;48.394;34.964;2023-04-01T01:11:08;99380.91;;;4.48;100.00
35045;BME280;21231;48.394;34.964;2023-04-01T01:13:53;99368.75;;;4.44;100.00
35045;BME280;21231;48.394;34.964;2023-04-01T01:16:30;99374.72;;;4.45;100.00
35045;BME280;21231;48.394;34.964;2023-04-01T01:22:22;99383.84;;;4.41;100.00
35045;BME280;21231;48.394;34.964;2023-04-01T01:25:16;99377.72;;;4.39;100.00
35045;BME280;21231;48.394;34.964;2023-04-01T01:28:24;99376.53;;;4.34;100.00
35045;BME280;21231;48.394;34.964;2023-04-01T01:31:24;99375.97;;;4.38;100.00
35045;BME280;21231;48.394;34.964;2023-04-01T01:36:56;99383.41;;;4.35;100.00
35045;BME280;21231;48.394;34.964;2023-04-01T01:39:31;99366.13;;;4.31;100.00
35045;BME280;21231;48.394;34.964;2023-04-01T01:42:04;99372.81;;;4.29;100.00
35045;BME280;21231;48.394;34.964;2023-04-01T01:44:35;99369.25;;;4.26;100.00
35045;BME280;21231;48.394;34.964;2023-04-01T01:47:09;99372.19;;;4.19;100.00
35045;BME280;21231;48.394;34.964;2023-04-01T01:49:39;99367.09;;;4.19;100.00
35045;BME280;21231;48.394;34.964;2023-04-01T01:52:12;99366.06;;;4.17;100.00
35045;BME280;21231;48.394;34.964;2023-04-01T01:54:52;99368.31;;;4.12;100.00
35045;BME280;21231;48.394;34.964;2023-04-01T01:57:30;99364.88;;;4.12;100.00
35045;BME280;21231;48.394;34.964;2023-04-01T02:00:07;99364.09;;;4.13;100.00
35045;BME280;21231;48.394;34.964;2023-04-01T02:02:46;99362.34;;;4.12;100.00
35045;BME280;21231;48.394;34.964;2023-04-01T02:05:21;99367.44;;;4.12;100.00
35045;BME280;21231;48.394;34.964;2023-04-01T02:08:20;99359.66;;;4.10;100.00
35045;BME280;21231;48.394;34.964;2023-04-01T02:11:03;99363.00;;;4.09;100.00
35045;BME280;21231;48.394;34.964;2023-04-01T02:13:53;99362.09;;;4.09;100.00
35045;BME280;21231;48.394;34.964;2023-04-01T02:16:27;99361.25;;;4.08;100.00
35045;BME280;21231;48.394;34.964;2023-04-01T02:18:59;99358.25;;;4.02;100.00
35045;BME280;21231;48.394;34.964;2023-04-01T02:21:31;99359.84;;;4.00;100.00
35045;BME280;21231;48.394;34.964;2023-04-01T02:24:02;99356.84;;;3.94;100.00
35045;BME280;21231;48.394;34.964;2023-04-01T02:26:33;99360.41;;;3.96;100.00
35045;BME280;21231;48.394;34.964;2023-04-01T02:29:04;99353.19;;;3.90;100.00
35045;BME280;21231;48.394;34.964;2023-04-01T02:31:36;99356.84;;;3.94;100.00
35045;BME280;21231;48.394;34.964;2023-04-01T02:34:07;99359.94;;;3.90;100.00
35045;BME280;21231;48.394;34.964;2023-04-01T02:36:36;99351.44;;;3.89;100.00
35045;BME280;21231;48.394;34.964;2023-04-01T02:39:05;99347.88;;;3.87;100.00
35045;BME280;21231;48.394;34.964;2023-04-01T02:41:45;99357.22;;;3.86;100.00
35045;BME280;21231;48.394;34.964;2023-04-01T02:44:17;99338.94;;;3.80;100.00
35045;BME280;21231;48.394;34.964;2023-04-01T02:46:49;99342.38;;;3.81;100.00
35045;BME280;21231;48.394;34.964;2023-04-01T02:49:28;99348.34;;;3.81;100.00
35045;BME280;21231;48.394;34.964;2023-04-01T02:52:00;99341.28;;;3.77;100.00
35045;BME280;21231;48.394;34.964;2023-04-01T02:54:29;99340.38;;;3.77;100.00
35045;BME280;21231;48.394;34.964;2023-04-01T02:56:58;99334.28;;;3.74;100.00
35045;BME280;21231;48.394;34.964;2023-04-01T02:59:27;99347.69;;;3.72;100.00
35045;BME280;21231;48.394;34.964;2023-04-01T03:02:06;99344.75;;;3.66;100.00
35045;BME280;21231;48.394;34.964;2023-04-01T03:04:35;99347.19;;;3.64;100.00
35045;BME280;21231;48.394;34.964;2023-04-01T03:07:07;99348.75;;;3.62;100.00
35045;BME280;21231;48.394;34.964;2023-04-01T03:09:43;99347.75;;;3.60;100.00
35045;BME280;21231;48.394;34.964;2023-04-01T03:12:14;99331.25;;;3.55;100.00
35045;BME280;21231;48.394;34.964;2023-04-01T03:14:52;99346.66;;;3.56;100.00
35045;BME280;21231;48.394;34.964;2023-04-01T03:17:21;99344.22;;;3.58;100.00
35045;BME280;21231;48.394;34.964;2023-04-01T03:19:55;99348.28;;;3.56;100.00
35045;BME280;21231;48.394;34.964;2023-04-01T03:22:29;99349.88;;;3.54;100.00
35045;BME280;21231;48.394;34.964;2023-04-01T03:25:02;99350.44;;;3.49;100.00
35045;BME280;21231;48.394;34.964;2023-04-01T03:27:34;99350.63;;;3.53;100.00
35045;BME280;21231;48.394;34.964;2023-04-01T03:30:07;99354.63;;;3.49;100.00
35045;BME280;21231;48.394;34.964;2023-04-01T03:32:49;99351.97;;;3.47;100.00
35045;BME280;21231;48.394;34.964;2023-04-01T03:35:19;99352.97;;;3.49;100.00
35045;BME280;21231;48.394;34.964;2023-04-01T03:37:56;99358.94;;;3.50;100.00
35045;BME280;21231;48.394;34.964;2023-04-01T03:40:33;99361.28;;;3.47;100.00
35045;BME280;21231;48.394;34.964;2023-04-01T03:43:06;99363.91;;;3.48;100.00
35045;BME280;21231;48.394;34.964;2023-04-01T03:45:45;99365.81;;;3.51;100.00
35045;BME280;21231;48.394;34.964;2023-04-01T03:48:14;99366.47;;;3.48;100.00
35045;BME280;21231;48.394;34.964;2023-04-01T03:50:44;99365.72;;;3.49;100.00
35045;BME280;21231;48.394;34.964;2023-04-01T03:53:14;99362.16;;;3.47;100.00
35045;BME280;21231;48.394;34.964;2023-04-01T03:55:45;99366.56;;;3.50;100.00
35045;BME280;21231;48.394;34.964;2023-04-01T03:58:26;99358.94;;;3.50;100.00
35045;BME280;21231;48.394;34.964;2023-04-01T04:00:56;99361.47;;;3.50;100.00
35045;BME280;21231;48.394;34.964;2023-04-01T04:03:28;99362.38;;;3.51;100.00
35045;BME280;21231;48.394;34.964;2023-04-01T04:05:56;99365.22;;;3.55;100.00
35045;BME280;21231;48.394;34.964;2023-04-01T04:08:25;99371.13;;;3.54;100.00
35045;BME280;21231;48.394;34.964;2023-04-01T04:10:55;99372.00;;;3.55;100.00
35045;BME280;21231;48.394;34.964;2023-04-01T04:13:29;99365.22;;;3.55;100.00
35045;BME280;21231;48.394;34.964;2023-04-01T04:16:02;99373.88;;;3.57;100.00
35045;BME280;21231;48.394;34.964;2023-04-01T04:18:35;99379.09;;;3.59;100.00
35045;BME280;21231;48.394;34.964;2023-04-01T04:21:05;99376.97;;;3.65;100.00
35045;BME280;21231;48.394;34.964;2023-04-01T04:23:35;99381.19;;;3.65;100.00
35045;BME280;21231;48.394;34.964;2023-04-01T04:26:08;99374.53;;;3.67;100.00
35045;BME280;21231;48.394;34.964;2023-04-01T04:28:37;99378.97;;;3.69;100.00
35045;BME280;21231;48.394;34.964;2023-04-01T04:31:07;99376.63;;;3.72;100.00
35045;BME280;21231;48.394;34.964;2023-04-01T04:33:37;99383.38;;;3.72;100.00
35045;BME280;21231;48.394;34.964;2023-04-01T04:36:19;99383.50;;;3.73;100.00
35045;BME280;21231;48.394;34.964;2023-04-01T04:38:50;99382.72;;;3.74;100.00
35045;BME280;21231;48.394;34.964;2023-04-01T04:41:19;99387.16;;;3.77;100.00
35045;BME280;21231;48.394;34.964;2023-04-01T04:43:54;99388.16;;;3.79;100.00
35045;BME280;21231;48.394;34.964;2023-04-01T04:46:30;99385.72;;;3.81;100.00
35045;BME280;21231;48.394;34.964;2023-04-01T04:49:14;99391.78;;;3.83;100.00
35045;BME280;21231;48.394;34.964;2023-04-01T04:51:43;99390.91;;;3.82;100.00
35045;BME280;21231;48.394;34.964;2023-04-01T04:54:14;99400.56;;;3.86;100.00
35045;BME280;21231;48.394;34.964;2023-04-01T04:56:53;99398.75;;;3.85;100.00
35045;BME280;21231;48.394;34.964;2023-04-01T04:59:26;99398.00;;;3.86;100.00
35045;BME280;21231;48.394;34.964;2023-04-01T05:02:02;99401.31;;;3.85;100.00
35045;BME280;21231;48.394;34.964;2023-04-01T05:04:36;99411.16;;;3.93;100.00
35045;BME280;21231;48.394;34.964;2023-04-01T05:07:09;99408.72;;;3.94;100.00
35045;BME280;21231;48.394;34.964;2023-04-01T05:09:38;99415.69;;;3.97;100.00
35045;BME280;21231;48.394;34.964;2023-04-01T05:12:09;99416.78;;;4.00;100.00
35045;BME280;21231;48.394;34.964;2023-04-01T05:15:07;99418.69;;;4.03;100.00
35045;BME280;21231;48.394;34.964;2023-04-01T05:17:42;99410.16;;;4.03;100.00
35045;BME280;21231;48.394;34.964;2023-04-01T05:20:13;99412.91;;;4.06;100.00
35045;BME280;21231;48.394;34.964;2023-04-01T05:22:44;99417.34;;;4.08;100.00
35045;BME280;21231;48.394;34.964;2023-04-01T05:25:15;99408.81;;;4.08;100.00
35045;BME280;21231;48.394;34.964;2023-04-01T05:27:48;99416.00;;;4.13;100.00
35045;BME280;21231;48.394;34.964;2023-04-01T05:30:22;99419.63;;;4.17;100.00
35045;BME280;21231;48.394;34.964;2023-04-01T05:33:05;99407.00;;;4.19;100.00
35045;BME280;21231;48.394;34.964;2023-04-01T05:35:35;99403.75;;;4.21;100.00
35045;BME280;21231;48.394;34.964;2023-04-01T05:38:05;99419.63;;;4.29;100.00
35045;BME280;21231;48.394;34.964;2023-04-01T05:40:46;99424.03;;;4.32;100.00
35045;BME280;21231;48.394;34.964;2023-04-01T05:43:16;99417.38;;;4.34;100.00
35045;BME280;21231;48.394;34.964;2023-04-01T05:45:54;99419.69;;;4.31;100.00
35045;BME280;21231;48.394;34.964;2023-04-01T05:48:46;99414.81;;;4.34;100.00
35045;BME280;21231;48.394;34.964;2023-04-01T05:51:16;99412.94;;;4.31;100.00
35045;BME280;21231;48.394;34.964;2023-04-01T05:53:51;99424.22;;;4.35;100.00
35045;BME280;21231;48.394;34.964;2023-04-01T05:56:26;99425.34;;;4.38;100.00
35045;BME280;21231;48.394;34.964;2023-04-01T05:58:57;99428.09;;;4.42;100.00
35045;BME280;21231;48.394;34.964;2023-04-01T06:01:29;99432.44;;;4.43;100.00
35045;BME280;21231;48.394;34.964;2023-04-01T06:04:03;99423.19;;;4.45;100.00
35045;BME280;21231;48.394;34.964;2023-04-01T06:06:35;99426.66;;;4.45;100.00
35045;BME280;21231;48.394;34.964;2023-04-01T06:09:24;99425.28;;;4.50;100.00
35045;BME280;21231;48.394;34.964;2023-04-01T06:15:09;99426.69;;;4.59;100.00
35045;BME280;21231;48.394;34.964;2023-04-01T06:27:02;99426.94;;;4.75;100.00
35045;BME280;21231;48.394;34.964;2023-04-01T06:29:55;99432.81;;;4.74;100.00
35045;BME280;21231;48.394;34.964;2023-04-01T06:32:50;99431.38;;;4.78;100.00
35045;BME280;21231;48.394;34.964;2023-04-01T06:42:40;99440.53;;;4.88;100.00
35045;BME280;21231;48.394;34.964;2023-04-01T06:51:19;99439.19;;;4.93;100.00
35045;BME280;21231;48.394;34.964;2023-04-01T06:54:17;99432.38;;;4.93;100.00
35045;BME280;21231;48.394;34.964;2023-04-01T06:57:37;99429.06;;;4.95;100.00
35045;BME280;21231;48.394;34.964;2023-04-01T07:00:36;99444.56;;;4.98;100.00
35045;BME280;21231;48.394;34.964;2023-04-01T07:03:40;99434.94;;;4.93;100.00
35045;BME280;21231;48.394;34.964;2023-04-01T07:06:36;99440.16;;;5.09;100.00
35045;BME280;21231;48.394;34.964;2023-04-01T07:09:21;99432.50;;;5.09;100.00
35045;BME280;21231;48.394;34.964;2023-04-01T07:12:37;99437.63;;;5.09;100.00
35045;BME280;21231;48.394;34.964;2023-04-01T07:15:36;99440.59;;;5.15;100.00
35045;BME280;21231;48.394;34.964;2023-04-01T07:18:25;99442.47;;;5.17;100.00
35045;BME280;21231;48.394;34.964;2023-04-01T07:21:02;99437.56;;;5.21;100.00
35045;BME280;21231;48.394;34.964;2023-04-01T07:23:44;99443.75;;;5.24;100.00
35045;BME280;21231;48.394;34.964;2023-04-01T07:26:39;99449.75;;;5.25;100.00
35045;BME280;21231;48.394;34.964;2023-04-01T07:29:23;99440.81;;;5.31;100.00
35045;BME280;21231;48.394;34.964;2023-04-01T07:35:12;99436.19;;;5.39;100.00
35045;BME280;21231;48.394;34.964;2023-04-01T07:43:58;99445.72;;;5.55;100.00
35045;BME280;21231;48.394;34.964;2023-04-01T07:46:52;99447.69;;;5.60;100.00
35045;BME280;21231;48.394;34.964;2023-04-01T07:49:50;99447.78;;;5.61;100.00
35045;BME280;21231;48.394;34.964;2023-04-01T07:53:00;99451.53;;;5.66;100.00
35045;BME280;21231;48.394;34.964;2023-04-01T08:02:06;99452.81;;;5.73;100.00
35045;BME280;21231;48.394;34.964;2023-04-01T08:05:18;99454.88;;;5.79;100.00
35045;BME280;21231;48.394;34.964;2023-04-01T08:09:16;99449.06;;;5.81;100.00
35045;BME280;21231;48.394;34.964;2023-04-01T08:11:57;99465.19;;;5.80;100.00
35045;BME280;21231;48.394;34.964;2023-04-01T08:15:37;99466.84;;;5.80;100.00
35045;BME280;21231;48.394;34.964;2023-04-01T08:21:20;99468.44;;;5.78;100.00
35045;BME280;21231;48.394;34.964;2023-04-01T08:24:10;99472.47;;;5.88;100.00
35045;BME280;21231;48.394;34.964;2023-04-01T08:26:50;99468.75;;;5.96;100.00
35045;BME280;21231;48.394;34.964;2023-04-01T08:29:35;99466.44;;;6.01;100.00
35045;BME280;21231;48.394;34.964;2023-04-01T08:32:16;99457.81;;;5.99;100.00
35045;BME280;21231;48.394;34.964;2023-04-01T08:34:57;99465.06;;;6.06;100.00
35045;BME280;21231;48.394;34.964;2023-04-01T08:37:40;99462.81;;;6.10;100.00
35045;BME280;21231;48.394;34.964;2023-04-01T08:40:42;99465.81;;;6.18;100.00
35045;BME280;21231;48.394;34.964;2023-04-01T08:52:33;99446.81;;;6.28;100.00
35045;BME280;21231;48.394;34.964;2023-04-01T09:05:02;99467.63;;;6.48;100.00
35045;BME280;21231;48.394;34.964;2023-04-01T09:11:17;99466.44;;;6.56;100.00
35045;BME280;21231;48.394;34.964;2023-04-01T09:25:58;99472.66;;;6.46;100.00
35045;BME280;21231;48.394;34.964;2023-04-01T09:28:44;99470.34;;;6.51;100.00
35045;BME280;21231;48.394;34.964;2023-04-01T09:40:33;99477.06;;;6.49;100.00
35045;BME280;21231;48.394;34.964;2023-04-01T09:51:39;99477.31;;;6.25;100.00
35045;BME280;21231;48.394;34.964;2023-04-01T09:54:20;99473.81;;;6.23;100.00
35045;BME280;21231;48.394;34.964;2023-04-01T09:57:10;99475.06;;;6.30;100.00
35045;BME280;21231;48.394;34.964;2023-04-01T10:27:32;99457.16;;;6.58;100.00
35045;BME280;21231;48.394;34.964;2023-04-01T10:39:17;99454.56;;;6.87;100.00
35045;BME280;21231;48.394;34.964;2023-04-01T10:50:24;99438.88;;;7.26;100.00
35045;BME280;21231;48.394;34.964;2023-04-01T10:56:54;99441.16;;;7.36;100.00
35045;BME280;21231;48.394;34.964;2023-04-01T11:00:15;99438.16;;;7.29;100.00
35045;BME280;21231;48.394;34.964;2023-04-01T11:29:45;99457.66;;;7.42;100.00
35045;BME280;21231;48.394;34.964;2023-04-01T11:41:33;99458.66;;;7.29;100.00
35045;BME280;21231;48.394;34.964;2023-04-01T11:44:29;99456.00;;;7.27;100.00
35045;BME280;21231;48.394;34.964;2023-04-01T11:47:27;99457.75;;;7.28;100.00
35045;BME280;21231;48.394;34.964;2023-04-01T11:50:12;99456.81;;;7.26;100.00
35045;BME280;21231;48.394;34.964;2023-04-01T11:56:02;99450.16;;;7.14;100.00
35045;BME280;21231;48.394;34.964;2023-04-01T11:58:46;99445.94;;;7.15;100.00
35045;BME280;21231;48.394;34.964;2023-04-01T12:10:12;99446.09;;;7.03;100.00
35045;BME280;21231;48.394;34.964;2023-04-01T12:12:54;99439.22;;;7.02;100.00
35045;BME280;21231;48.394;34.964;2023-04-01T12:18:50;99438.50;;;7.05;100.00
35045;BME280;21231;48.394;34.964;2023-04-01T12:21:27;99435.41;;;7.10;100.00
35045;BME280;21231;48.394;34.964;2023-04-01T12:27:00;99426.41;;;7.17;100.00
35045;BME280;21231;48.394;34.964;2023-04-01T12:38:14;99434.88;;;7.16;100.00
35045;BME280;21231;48.394;34.964;2023-04-01T12:46:32;99424.81;;;7.19;100.00
35045;BME280;21231;48.394;34.964;2023-04-01T13:00:43;99422.16;;;7.18;100.00
35045;BME280;21231;48.394;34.964;2023-04-01T13:03:44;99419.75;;;7.21;100.00
35045;BME280;21231;48.394;34.964;2023-04-01T13:42:17;99431.13;;;7.86;100.00
35045;BME280;21231;48.394;34.964;2023-04-01T13:45:19;99432.38;;;7.95;100.00
35045;BME280;21231;48.394;34.964;2023-04-01T13:48:05;99444.13;;;8.06;100.00
35045;BME280;21231;48.394;34.964;2023-04-01T13:53:30;99442.16;;;8.17;100.00
35045;BME280;21231;48.394;34.964;2023-04-01T13:58:43;99444.47;;;8.29;100.00
35045;BME280;21231;48.394;34.964;2023-04-01T14:04:34;99454.09;;;8.33;100.00
35045;BME280;21231;48.394;34.964;2023-04-01T14:16:14;99464.56;;;8.36;100.00
35045;BME280;21231;48.394;34.964;2023-04-01T14:19:03;99466.94;;;8.33;100.00
35045;BME280;21231;48.394;34.964;2023-04-01T14:21:43;99465.81;;;8.28;100.00
35045;BME280;21231;48.394;34.964;2023-04-01T14:24:57;99464.06;;;8.27;100.00
35045;BME280;21231;48.394;34.964;2023-04-01T14:27:46;99469.03;;;8.24;100.00
35045;BME280;21231;48.394;34.964;2023-04-01T14:43:38;99469.78;;;8.38;100.00
35045;BME280;21231;48.394;34.964;2023-04-01T14:49:33;99465.13;;;8.47;100.00
35045;BME280;21231;48.394;34.964;2023-04-01T14:52:25;99453.97;;;8.47;100.00
35045;BME280;21231;48.394;34.964;2023-04-01T14:54:56;99456.06;;;8.54;100.00
35045;BME280;21231;48.394;34.964;2023-04-01T14:57:31;99456.88;;;8.53;100.00
35045;BME280;21231;48.394;34.964;2023-04-01T15:02:59;99460.06;;;8.49;100.00
35045;BME280;21231;48.394;34.964;2023-04-01T15:14:04;99448.13;;;8.49;100.00
35045;BME280;21231;48.394;34.964;2023-04-01T15:16:54;99435.19;;;8.48;100.00
35045;BME280;21231;48.394;34.964;2023-04-01T15:27:42;99435.69;;;8.57;100.00
35045;BME280;21231;48.394;34.964;2023-04-01T15:35:53;99438.34;;;8.59;100.00
35045;BME280;21231;48.394;34.964;2023-04-01T15:41:23;99437.34;;;8.56;100.00
35045;BME280;21231;48.394;34.964;2023-04-01T15:43:56;99447.63;;;8.56;100.00
35045;BME280;21231;48.394;34.964;2023-04-01T15:49:27;99451.16;;;8.59;100.00
35045;BME280;21231;48.394;34.964;2023-04-01T15:52:15;99444.50;;;8.62;100.00
35045;BME280;21231;48.394;34.964;2023-04-01T15:58:01;99455.88;;;8.51;100.00
35045;BME280;21231;48.394;34.964;2023-04-01T16:00:57;99460.72;;;8.44;100.00
35045;BME280;21231;48.394;34.964;2023-04-01T16:04:06;99470.03;;;8.42;100.00
35045;BME280;21231;48.394;34.964;2023-04-01T16:09:39;99474.50;;;8.30;100.00
35045;BME280;21231;48.394;34.964;2023-04-01T16:12:29;99468.38;;;8.28;100.00
35045;BME280;21231;48.394;34.964;2023-04-01T16:21:07;99464.28;;;8.15;100.00
35045;BME280;21231;48.394;34.964;2023-04-01T16:26:29;99463.28;;;7.96;100.00
35045;BME280;21231;48.394;34.964;2023-04-01T16:29:26;99461.09;;;7.87;100.00
35045;BME280;21231;48.394;34.964;2023-04-01T16:35:22;99464.28;;;7.83;100.00
35045;BME280;21231;48.394;34.964;2023-04-01T16:38:22;99470.19;;;7.82;100.00
35045;BME280;21231;48.394;34.964;2023-04-01T16:43:56;99485.13;;;7.74;100.00
35045;BME280;21231;48.394;34.964;2023-04-01T16:49:13;99486.34;;;7.81;100.00
35045;BME280;21231;48.394;34.964;2023-04-01T17:00:12;99497.97;;;7.74;100.00
35045;BME280;21231;48.394;34.964;2023-04-01T17:12:10;99499.69;;;7.59;100.00
35045;BME280;21231;48.394;34.964;2023-04-01T17:20:09;99510.88;;;7.46;100.00
35045;BME280;21231;48.394;34.964;2023-04-01T17:25:25;99504.53;;;7.39;100.00
35045;BME280;21231;48.394;34.964;2023-04-01T17:33:53;99517.63;;;7.29;100.00
35045;BME280;21231;48.394;34.964;2023-04-01T17:36:27;99519.47;;;7.31;100.00
35045;BME280;21231;48.394;34.964;2023-04-01T17:58:39;99526.22;;;7.00;100.00
35045;BME280;21231;48.394;34.964;2023-04-01T18:04:25;99537.78;;;6.94;100.00
35045;BME280;21231;48.394;34.964;2023-04-01T18:09:58;99537.69;;;6.92;100.00
35045;BME280;21231;48.394;34.964;2023-04-01T18:12:44;99523.72;;;6.87;100.00
35045;BME280;21231;48.394;34.964;2023-04-01T18:15:35;99513.97;;;6.81;100.00
35045;BME280;21231;48.394;34.964;2023-04-01T18:19:41;99514.84;;;6.67;100.00
35045;BME280;21231;48.394;34.964;2023-04-01T18:21:47;99511.41;;;6.53;100.00
35045;BME280;21231;48.394;34.964;2023-04-01T18:24:29;99510.06;;;6.44;100.00
35045;BME280;21231;48.394;34.964;2023-04-01T18:27:06;99506.84;;;6.33;100.00
35045;BME280;21231;48.394;34.964;2023-04-01T18:29:47;99498.19;;;6.31;100.00
35045;BME280;21231;48.394;34.964;2023-04-01T18:43:30;99502.06;;;5.97;100.00
35045;BME280;21231;48.394;34.964;2023-04-01T18:51:37;99500.41;;;5.84;100.00
35045;BME280;21231;48.394;34.964;2023-04-01T18:54:22;99501.09;;;5.82;100.00
35045;BME280;21231;48.394;34.964;2023-04-01T18:57:13;99497.25;;;5.75;100.00
35045;BME280;21231;48.394;34.964;2023-04-01T18:59:46;99486.25;;;5.76;100.00
35045;BME280;21231;48.394;34.964;2023-04-01T19:02:45;99492.16;;;5.75;100.00
35045;BME280;21231;48.394;34.964;2023-04-01T19:05:39;99496.69;;;5.79;100.00
35045;BME280;21231;48.394;34.964;2023-04-01T19:10:55;99492.75;;;5.84;100.00
35045;BME280;21231;48.394;34.964;2023-04-01T19:21:57;99498.91;;;6.02;100.00
35045;BME280;21231;48.394;34.964;2023-04-01T19:24:51;99498.03;;;6.01;100.00
35045;BME280;21231;48.394;34.964;2023-04-01T19:27:32;99484.47;;;6.02;100.00
35045;BME280;21231;48.394;34.964;2023-04-01T19:36:15;99488.06;;;6.06;100.00
35045;BME280;21231;48.394;34.964;2023-04-01T19:42:21;99483.88;;;5.93;100.00
35045;BME280;21231;48.394;34.964;2023-04-01T19:50:43;99492.94;;;5.74;100.00
35045;BME280;21231;48.394;34.964;2023-04-01T19:53:23;99487.22;;;5.65;100.00
35045;BME280;21231;48.394;34.964;2023-04-01T19:56:19;99483.47;;;5.60;100.00
35045;BME280;21231;48.394;34.964;2023-04-01T19:59:20;99484.97;;;5.56;100.00
35045;BME280;21231;48.394;34.964;2023-04-01T20:04:49;99473.56;;;5.51;100.00
35045;BME280;21231;48.394;34.964;2023-04-01T20:15:34;99467.53;;;5.37;100.00
35045;BME280;21231;48.394;34.964;2023-04-01T20:18:38;99467.91;;;5.29;100.00
35045;BME280;21231;48.394;34.964;2023-04-01T20:23:53;99470.19;;;5.25;100.00
35045;BME280;21231;48.394;34.964;2023-04-01T20:26:35;99465.44;;;5.17;100.00
35045;BME280;21231;48.394;34.964;2023-04-01T20:31:43;99460.72;;;5.10;100.00
35045;BME280;21231;48.394;34.964;2023-04-01T20:40:58;99452.94;;;5.09;100.00
35045;BME280;21231;48.394;34.964;2023-04-01T20:43:32;99443.88;;;5.00;100.00
35045;BME280;21231;48.394;34.964;2023-04-01T20:51:46;99438.13;;;5.03;100.00
35045;BME280;21231;48.394;34.964;2023-04-01T21:02:54;99426.63;;;4.96;100.00
35045;BME280;21231;48.394;34.964;2023-04-01T21:05:55;99420.03;;;5.00;100.00
35045;BME280;21231;48.394;34.964;2023-04-01T21:09:02;99421.59;;;4.98;100.00
35045;BME280;21231;48.394;34.964;2023-04-01T21:15:02;99413.63;;;4.93;100.00
35045;BME280;21231;48.394;34.964;2023-04-01T21:26:12;99412.63;;;4.91;100.00
35045;BME280;21231;48.394;34.964;2023-04-01T21:46:26;99404.88;;;4.89;100.00
35045;BME280;21231;48.394;34.964;2023-04-01T21:49:31;99405.66;;;4.88;100.00
35045;BME280;21231;48.394;34.964;2023-04-01T21:55:20;99398.31;;;4.93;100.00
35045;BME280;21231;48.394;34.964;2023-04-01T21:58:27;99396.44;;;4.90;100.00
35045;BME280;21231;48.394;34.964;2023-04-01T22:01:08;99396.34;;;4.89;100.00
35045;BME280;21231;48.394;34.964;2023-04-01T22:04:14;99387.69;;;4.87;100.00
35045;BME280;21231;48.394;34.964;2023-04-01T22:07:15;99395.34;;;4.87;100.00
35045;BME280;21231;48.394;34.964;2023-04-01T22:12:57;99397.28;;;4.77;100.00
35045;BME280;21231;48.394;34.964;2023-04-01T22:18:46;99393.34;;;4.69;100.00
35045;BME280;21231;48.394;34.964;2023-04-01T22:21:51;99393.22;;;4.68;100.00
35045;BME280;21231;48.394;34.964;2023-04-01T22:30:30;99384.31;;;4.74;100.00
35045;BME280;21231;48.394;34.964;2023-04-01T22:37:17;99381.88;;;4.76;100.00
35045;BME280;21231;48.394;34.964;2023-04-01T22:42:44;99384.94;;;4.70;100.00
35045;BME280;21231;48.394;34.964;2023-04-01T22:45:33;99386.22;;;4.77;100.00
35045;BME280;21231;48.394;34.964;2023-04-01T22:51:15;99379.84;;;4.84;100.00
35045;BME280;21231;48.394;34.964;2023-04-01T22:56:43;99381.28;;;4.80;100.00
35045;BME280;21231;48.394;34.964;2023-04-01T22:59:40;99386.28;;;4.78;100.00
35045;BME280;21231;48.394;34.964;2023-04-01T23:02:20;99376.28;;;4.82;100.00
35045;BME280;21231;48.394;34.964;2023-04-01T23:04:55;99373.53;;;4.78;100.00
35045;BME280;21231;48.394;34.964;2023-04-01T23:10:25;99365.25;;;4.69;100.00
35045;BME280;21231;48.394;34.964;2023-04-01T23:13:00;99361.75;;;4.67;100.00
35045;BME280;21231;48.394;34.964;2023-04-01T23:15:32;99369.59;;;4.70;100.00
35045;BME280;21231;48.394;34.964;2023-04-01T23:21:40;99362.69;;;4.56;100.00
